East Franklin, Vermont
Current Conditions -  °F | °C
As of 9:35 PM on Tuesday 21 Oct 2014 (Local Time) from KFSO Reporting Station
Light Rain Light Rain  
Wind Chill:   Ceiling: 300
Heat Index:   Visibility: 5mi
Dew Point:   Wind: 7mph
Humidity: 97%   Direction: 360°N
Pressure: 30.09"   Gusts: NA
Location:  44.9656°N, 72.8975°W
Report Text: KFSO 220135Z AUTO 36006KT 5SM -RA BKN003 OVC049 07/07 A3009 RMK AO2 T00720068
Loading
Personal Weather Stations






























Interactive Weather Map
Tropical Storm Tracking
New forecast layout! Learn more

10-Day Weather Forecast

Advertisements
Track Severe Weather on mobile